Time;durP1;ratioP1;P1;durP2;ratioP2;P2;SDS_P1;SDS_P2;PMS_P1;PMS_P2;Temp;Humidity;BMP_temperature;BMP_pressure;BME280_temperature;BME280_humidity;BME280_pressure;Samples;Min_cycle;Max_cycle;Signal;HPM_P1;HPM_P2
2021/10/15 00:00:17;;;;;;;10.75;5.57;;;13.60;99.90;;;;;;5061817;28;20048;-76
2021/10/15 00:02:43;;;;;;;12.85;5.68;;;13.60;99.90;;;;;;5064906;28;20035;-77
2021/10/15 00:05:09;;;;;;;10.93;5.65;;;13.60;99.90;;;;;;5065930;28;20018;-77
2021/10/15 00:07:35;;;;;;;12.90;5.10;;;13.60;99.90;;;;;;5063254;28;20388;-76
2021/10/15 00:10:05;;;;;;;8.63;5.20;;;13.60;99.90;;;;;;5064667;28;20024;-77
2021/10/15 00:12:31;;;;;;;14.52;5.65;;;13.50;99.90;;;;;;5065782;28;20032;-78
2021/10/15 00:14:57;;;;;;;8.88;5.55;;;13.50;99.90;;;;;;5065418;28;20052;-77
2021/10/15 00:17:23;;;;;;;9.75;5.00;;;13.50;99.90;;;;;;5060520;28;20060;-78
2021/10/15 00:19:49;;;;;;;13.95;6.00;;;13.50;99.90;;;;;;5065741;28;20020;-78
2021/10/15 00:22:15;;;;;;;11.50;6.18;;;13.50;99.90;;;;;;5063257;28;20071;-77
2021/10/15 00:24:40;;;;;;;12.63;6.10;;;13.40;99.90;;;;;;5059211;28;20504;-78
2021/10/15 00:27:06;;;;;;;14.27;5.97;;;13.40;99.90;;;;;;5065215;28;20037;-77
2021/10/15 00:29:31;;;;;;;15.73;6.60;;;13.30;99.90;;;;;;5066635;28;20055;-77
2021/10/15 00:31:57;;;;;;;13.27;6.80;;;13.30;99.90;;;;;;5066886;28;20028;-77
2021/10/15 00:34:23;;;;;;;12.27;6.50;;;13.30;99.90;;;;;;5063565;28;20512;-76
2021/10/15 00:36:49;;;;;;;11.90;6.38;;;13.20;99.90;;;;;;5061965;28;20033;-76
2021/10/15 00:39:15;;;;;;;12.38;5.95;;;13.30;99.90;;;;;;5064001;28;20040;-77
2021/10/15 00:41:40;;;;;;;13.57;6.65;;;13.20;99.90;;;;;;5061339;28;20021;-77
2021/10/15 00:44:09;;;;;;;17.65;6.18;;;13.20;99.90;;;;;;5067334;28;20488;-77
2021/10/15 00:46:36;;;;;;;15.70;6.53;;;13.30;99.90;;;;;;5066437;28;20055;-78
2021/10/15 00:49:03;;;;;;;14.90;6.32;;;13.30;99.90;;;;;;5063554;28;20013;-78
2021/10/15 00:51:31;;;;;;;10.70;6.47;;;13.20;99.90;;;;;;5065741;28;20025;-78
2021/10/15 00:53:57;;;;;;;10.38;6.65;;;13.30;99.90;;;;;;5062545;28;20063;-77
2021/10/15 00:56:24;;;;;;;9.93;6.65;;;13.20;99.90;;;;;;5063787;28;20029;-77
2021/10/15 00:58:50;;;;;;;12.70;7.20;;;13.20;99.90;;;;;;5064683;28;20021;-77
2021/10/15 01:01:15;;;;;;;14.68;7.05;;;13.20;99.90;;;;;;5066224;28;20368;-76
2021/10/15 01:03:41;;;;;;;13.45;7.85;;;13.10;99.90;;;;;;5059613;28;20021;-77
2021/10/15 01:06:07;;;;;;;15.02;7.55;;;13.00;99.90;;;;;;5062365;28;20052;-76
2021/10/15 01:08:41;;;;;;;12.52;6.78;;;13.10;99.90;;;;;;5057155;28;20028;-77
2021/10/15 01:11:07;;;;;;;11.75;7.07;;;13.10;99.90;;;;;;5061218;28;20389;-76
2021/10/15 01:13:34;;;;;;;16.10;7.40;;;13.10;99.90;;;;;;5058378;28;20072;-76
2021/10/15 01:16:07;;;;;;;12.48;6.18;;;13.10;99.90;;;;;;5061883;28;20029;-76
2021/10/15 01:18:33;;;;;;;11.20;6.85;;;13.10;99.90;;;;;;5061161;28;20579;-77
2021/10/15 01:21:00;;;;;;;13.35;6.88;;;13.10;99.90;;;;;;5054390;28;20028;-77
2021/10/15 01:23:26;;;;;;;11.57;6.75;;;13.10;99.90;;;;;;5062644;28;20385;-77
2021/10/15 01:25:56;;;;;;;11.85;6.22;;;13.10;99.90;;;;;;5064387;28;20532;-76
2021/10/15 01:28:26;;;;;;;13.40;7.55;;;13.10;99.90;;;;;;5062154;28;20025;-77
2021/10/15 01:30:53;;;;;;;13.75;6.38;;;13.10;99.90;;;;;;5059105;28;20017;-77
2021/10/15 01:33:19;;;;;;;11.70;6.47;;;13.10;99.90;;;;;;5059985;28;20032;-76
2021/10/15 01:35:44;;;;;;;13.88;6.25;;;13.00;99.90;;;;;;5058141;28;20044;-77
2021/10/15 01:38:11;;;;;;;10.93;5.85;;;13.00;99.90;;;;;;5063340;28;20026;-77
2021/10/15 01:40:37;;;;;;;12.60;6.03;;;13.00;99.90;;;;;;5059516;28;20017;-79
2021/10/15 01:43:03;;;;;;;11.05;6.47;;;12.90;99.90;;;;;;5054085;28;20043;-78
2021/10/15 01:45:31;;;;;;;11.35;6.30;;;12.90;99.90;;;;;;5058869;28;20033;-77
2021/10/15 01:47:58;;;;;;;9.15;7.05;;;13.00;99.90;;;;;;5060140;28;20032;-78
2021/10/15 01:50:25;;;;;;;13.52;7.07;;;13.00;99.90;;;;;;5061330;28;20021;-77
2021/10/15 01:52:52;;;;;;;13.95;6.82;;;13.00;99.90;;;;;;5064194;28;20063;-78
2021/10/15 01:55:19;;;;;;;13.07;6.40;;;13.10;99.90;;;;;;5067802;28;20028;-78
2021/10/15 01:57:45;;;;;;;15.27;6.75;;;13.10;99.90;;;;;;5060957;28;20032;-77
2021/10/15 02:00:12;;;;;;;9.50;6.30;;;13.10;99.90;;;;;;5063633;28;20027;-77
2021/10/15 02:02:39;;;;;;;11.20;6.50;;;13.10;99.90;;;;;;5065240;28;20017;-78
2021/10/15 02:05:07;;;;;;;14.13;7.57;;;13.20;99.90;;;;;;5062577;28;21339;-78
2021/10/15 02:07:32;;;;;;;13.73;6.60;;;13.30;99.90;;;;;;5062754;28;20595;-77
2021/10/15 02:09:58;;;;;;;11.73;5.90;;;13.20;99.90;;;;;;5060790;28;20066;-77
2021/10/15 02:12:24;;;;;;;13.85;6.88;;;13.20;99.90;;;;;;5060398;28;20032;-76
2021/10/15 02:14:50;;;;;;;11.68;7.07;;;13.20;99.90;;;;;;5060636;28;20060;-76
2021/10/15 02:17:15;;;;;;;11.73;6.47;;;13.10;99.90;;;;;;5060005;28;20066;-76
2021/10/15 02:19:41;;;;;;;12.70;7.00;;;13.20;99.90;;;;;;5063820;28;20032;-76
2021/10/15 02:22:07;;;;;;;12.43;6.68;;;13.10;99.90;;;;;;5057379;28;20044;-76
2021/10/15 02:24:33;;;;;;;12.45;6.00;;;13.10;99.90;;;;;;5057965;28;20079;-77
2021/10/15 02:26:59;;;;;;;12.43;6.57;;;13.10;99.90;;;;;;5057960;28;20423;-77
2021/10/15 02:29:25;;;;;;;12.70;7.18;;;13.20;99.90;;;;;;5059554;28;20040;-78
2021/10/15 02:31:50;;;;;;;10.38;5.97;;;13.20;99.90;;;;;;5054695;28;20079;-78
2021/10/15 02:34:17;;;;;;;14.40;6.60;;;13.20;99.90;;;;;;5060140;28;20571;-77
2021/10/15 02:36:43;;;;;;;11.77;5.95;;;13.20;99.90;;;;;;5061046;28;20040;-78
2021/10/15 02:39:09;;;;;;;10.65;6.05;;;13.20;99.90;;;;;;5063944;28;20028;-78
2021/10/15 02:41:37;;;;;;;9.93;6.47;;;13.20;99.90;;;;;;5065955;28;20128;-78
2021/10/15 02:44:05;;;;;;;12.25;6.80;;;13.10;99.90;;;;;;5059962;28;20416;-78
2021/10/15 02:46:30;;;;;;;14.68;6.35;;;13.10;99.90;;;;;;5064045;28;20099;-77
2021/10/15 02:48:56;;;;;;;14.32;6.63;;;13.20;99.90;;;;;;5062534;28;20099;-78
2021/10/15 02:51:22;;;;;;;12.25;6.10;;;13.20;99.90;;;;;;5057252;28;20037;-78
2021/10/15 02:53:47;;;;;;;11.48;6.20;;;13.20;99.90;;;;;;5061272;28;20039;-78
2021/10/15 02:56:13;;;;;;;12.00;6.72;;;13.20;99.90;;;;;;5067980;28;20071;-79
2021/10/15 02:58:39;;;;;;;17.13;6.80;;;13.30;99.90;;;;;;5069128;28;20040;-77
2021/10/15 03:01:04;;;;;;;17.27;6.45;;;13.20;99.90;;;;;;5062226;28;20079;-78
2021/10/15 03:03:30;;;;;;;12.65;6.35;;;13.30;99.90;;;;;;5069249;28;20070;-78
2021/10/15 03:05:56;;;;;;;14.90;6.93;;;13.30;99.90;;;;;;5062395;28;20025;-77
2021/10/15 03:08:21;;;;;;;12.15;6.53;;;13.20;99.90;;;;;;5065240;28;20382;-78
2021/10/15 03:10:47;;;;;;;11.75;6.70;;;13.30;99.90;;;;;;5062356;28;20419;-78
2021/10/15 03:13:12;;;;;;;11.50;5.95;;;13.20;99.90;;;;;;5060075;28;20036;-77
2021/10/15 03:15:38;;;;;;;17.10;6.88;;;13.20;99.90;;;;;;5068235;28;20020;-77
2021/10/15 03:18:03;;;;;;;13.88;6.78;;;13.30;99.90;;;;;;5058747;28;20029;-77
2021/10/15 03:20:29;;;;;;;12.65;6.10;;;13.30;99.90;;;;;;5066511;28;20020;-77
2021/10/15 03:22:55;;;;;;;12.23;6.07;;;13.30;99.90;;;;;;5067388;28;20040;-79
2021/10/15 03:25:20;;;;;;;14.23;6.63;;;13.30;99.90;;;;;;5058866;28;20023;-79
2021/10/15 03:27:46;;;;;;;13.40;6.25;;;13.30;99.90;;;;;;5062328;28;20174;-79
2021/10/15 03:30:12;;;;;;;15.27;6.40;;;13.30;99.90;;;;;;5063846;28;20025;-78
2021/10/15 03:32:37;;;;;;;15.68;7.07;;;13.40;99.90;;;;;;5060455;28;20029;-78
2021/10/15 03:35:03;;;;;;;11.13;6.57;;;13.30;99.90;;;;;;5060918;28;20480;-79
2021/10/15 03:37:29;;;;;;;11.27;6.55;;;13.30;99.90;;;;;;5061214;28;20032;-79
2021/10/15 03:39:55;;;;;;;15.02;6.70;;;13.30;99.90;;;;;;5059569;28;20480;-80
2021/10/15 03:42:20;;;;;;;13.27;6.43;;;13.30;99.90;;;;;;5064070;28;20035;-79
2021/10/15 03:44:46;;;;;;;14.65;6.70;;;13.30;99.90;;;;;;5061848;28;20497;-79
2021/10/15 03:47:13;;;;;;;11.20;6.70;;;13.30;99.90;;;;;;5059402;28;20017;-78
2021/10/15 03:49:39;;;;;;;11.52;6.82;;;13.20;99.90;;;;;;5066073;28;20029;-78
2021/10/15 03:52:04;;;;;;;12.18;6.45;;;13.20;99.90;;;;;;5065130;28;20028;-79
2021/10/15 03:54:30;;;;;;;13.73;7.55;;;13.20;99.90;;;;;;5064086;28;20107;-79
2021/10/15 03:56:56;;;;;;;14.45;7.03;;;13.20;99.90;;;;;;5071932;28;20448;-79
2021/10/15 03:59:21;;;;;;;11.82;6.50;;;13.20;99.90;;;;;;5064754;28;20104;-78
2021/10/15 04:01:47;;;;;;;16.23;6.75;;;13.30;99.90;;;;;;5062510;28;20037;-79
2021/10/15 04:04:14;;;;;;;14.50;7.05;;;13.30;99.90;;;;;;5057511;28;20024;-78
2021/10/15 04:06:40;;;;;;;11.48;6.50;;;13.30;99.90;;;;;;5065374;28;20392;-79
2021/10/15 04:09:06;;;;;;;12.27;6.13;;;13.30;99.90;;;;;;5063646;28;20095;-79
2021/10/15 04:11:32;;;;;;;14.70;7.22;;;13.30;99.90;;;;;;5063694;28;20064;-79
2021/10/15 04:13:59;;;;;;;12.95;6.90;;;13.30;99.90;;;;;;5072412;28;20067;-79
2021/10/15 04:16:25;;;;;;;11.40;6.80;;;13.30;99.90;;;;;;5068122;28;20013;-78
2021/10/15 04:18:50;;;;;;;11.95;6.63;;;13.30;99.90;;;;;;5073348;28;20107;-79
2021/10/15 04:21:16;;;;;;;17.02;6.80;;;13.30;99.90;;;;;;5066825;28;20139;-79
2021/10/15 04:23:42;;;;;;;15.20;7.22;;;13.30;99.90;;;;;;5066729;28;20020;-79
2021/10/15 04:26:07;;;;;;;10.73;7.00;;;13.40;99.90;;;;;;5064386;28;20044;-79
2021/10/15 04:28:33;;;;;;;15.07;7.03;;;13.40;99.90;;;;;;5071620;28;20108;-79
2021/10/15 04:30:59;;;;;;;12.23;6.40;;;13.40;99.90;;;;;;5071584;28;20078;-79
2021/10/15 04:33:25;;;;;;;15.38;6.85;;;13.40;99.90;;;;;;5061505;28;20094;-78
2021/10/15 04:35:51;;;;;;;9.25;6.40;;;13.40;99.90;;;;;;5066336;28;20027;-79
2021/10/15 04:38:17;;;;;;;9.95;5.93;;;13.40;99.90;;;;;;5062417;28;20033;-78
2021/10/15 04:40:42;;;;;;;11.68;6.97;;;13.40;99.90;;;;;;5063788;28;20063;-79
2021/10/15 04:43:08;;;;;;;11.88;6.25;;;13.50;99.90;;;;;;5073277;28;20134;-79
2021/10/15 04:45:34;;;;;;;12.35;7.00;;;13.40;99.90;;;;;;5067811;28;20029;-79
2021/10/15 04:48:00;;;;;;;11.85;6.28;;;13.40;99.90;;;;;;5071179;28;20071;-79
2021/10/15 04:50:26;;;;;;;14.07;6.63;;;13.50;99.90;;;;;;5060100;28;20021;-79
2021/10/15 04:52:51;;;;;;;10.95;5.75;;;13.50;99.90;;;;;;5062033;28;20041;-79
2021/10/15 04:55:17;;;;;;;10.40;6.22;;;13.50;99.90;;;;;;5066703;28;20035;-79
2021/10/15 04:57:43;;;;;;;14.27;7.85;;;13.50;99.90;;;;;;5061322;28;20032;-79
2021/10/15 05:00:09;;;;;;;13.10;6.82;;;13.40;99.90;;;;;;5066315;28;20029;-79
2021/10/15 05:02:41;;;;;;;8.75;6.10;;;13.40;99.90;;;;;;5064522;28;20024;-79
2021/10/15 05:05:08;;;;;;;9.15;6.32;;;13.50;99.90;;;;;;5061148;28;20032;-79
2021/10/15 05:07:35;;;;;;;10.50;6.22;;;13.50;99.90;;;;;;5067978;28;20158;-79
2021/10/15 05:10:01;;;;;;;10.18;6.45;;;13.50;99.90;;;;;;5065147;28;20051;-79
2021/10/15 05:12:27;;;;;;;11.45;5.82;;;13.60;99.90;;;;;;5071451;28;20396;-78
2021/10/15 05:14:54;;;;;;;8.90;6.07;;;13.60;99.90;;;;;;5060538;28;20028;-79
2021/10/15 05:17:20;;;;;;;11.43;6.80;;;13.60;99.90;;;;;;5067121;28;20086;-79
2021/10/15 05:19:46;;;;;;;15.70;7.03;;;13.60;99.90;;;;;;5068106;28;20028;-79
2021/10/15 05:22:12;;;;;;;12.80;6.68;;;13.60;99.90;;;;;;5062704;28;20052;-79
2021/10/15 05:24:38;;;;;;;11.77;6.25;;;13.60;99.90;;;;;;5063122;28;20421;-79
2021/10/15 05:27:04;;;;;;;12.73;6.95;;;13.60;99.90;;;;;;5067030;28;20059;-79
2021/10/15 05:29:29;;;;;;;14.13;6.43;;;13.60;99.90;;;;;;5061917;28;20488;-79
2021/10/15 05:31:55;;;;;;;16.27;6.75;;;13.60;99.90;;;;;;5065325;28;20488;-79
2021/10/15 05:34:21;;;;;;;11.63;7.22;;;13.60;99.90;;;;;;5063937;28;20113;-79
2021/10/15 05:36:47;;;;;;;17.95;6.93;;;13.60;99.90;;;;;;5065340;28;20028;-79
2021/10/15 05:39:13;;;;;;;11.35;6.43;;;13.50;99.90;;;;;;5060744;28;20033;-79
2021/10/15 05:41:39;;;;;;;12.48;7.25;;;13.60;99.90;;;;;;5063006;28;20100;-79
2021/10/15 05:44:04;;;;;;;13.90;7.40;;;13.60;99.90;;;;;;5066393;28;20044;-79
2021/10/15 05:46:30;;;;;;;11.13;7.32;;;13.50;99.90;;;;;;5058111;28;20439;-79
2021/10/15 05:48:56;;;;;;;11.55;7.50;;;13.50;99.90;;;;;;5069300;28;20468;-80
2021/10/15 05:51:23;;;;;;;10.38;6.45;;;13.60;99.90;;;;;;5058573;28;20078;-79
2021/10/15 05:53:51;;;;;;;14.57;7.88;;;13.50;99.90;;;;;;5063525;28;20041;-79
2021/10/15 05:58:50;;;;;;;16.55;7.15;;;13.60;99.90;;;;;;5066187;28;20071;-79
2021/10/15 06:01:19;;;;;;;14.45;7.15;;;13.60;99.90;;;;;;5060568;28;20047;-79
2021/10/15 06:03:49;;;;;;;12.52;7.50;;;13.60;99.90;;;;;;5058385;28;20023;-79
2021/10/15 06:16:15;;;;;;;10.40;7.25;;;13.60;99.90;;;;;;5075131;28;20028;-78
2021/10/15 06:18:45;;;;;;;10.02;7.75;;;13.60;99.90;;;;;;5074949;28;20100;-79
2021/10/15 06:21:11;;;;;;;12.02;7.82;;;13.60;99.90;;;;;;5062380;28;20021;-79
2021/10/15 06:23:36;;;;;;;14.95;7.80;;;13.70;99.90;;;;;;5067066;28;20021;-79
2021/10/15 06:26:03;;;;;;;12.30;7.60;;;13.70;99.90;;;;;;5059989;28;20044;-79
2021/10/15 06:28:29;;;;;;;15.68;7.35;;;13.70;99.90;;;;;;5063538;28;20055;-79
2021/10/15 06:30:54;;;;;;;14.43;8.38;;;13.70;99.90;;;;;;5061648;28;20515;-79
2021/10/15 06:33:20;;;;;;;9.13;7.18;;;13.70;99.90;;;;;;5061750;28;20481;-77
2021/10/15 06:35:46;;;;;;;15.45;8.35;;;13.60;99.90;;;;;;5060293;28;20029;-79
2021/10/15 06:38:11;;;;;;;15.95;9.35;;;13.70;99.90;;;;;;5060300;28;20502;-78
2021/10/15 06:40:38;;;;;;;14.20;8.60;;;13.70;99.90;;;;;;5067219;28;20029;-79
2021/10/15 06:43:05;;;;;;;16.17;8.10;;;13.80;99.90;;;;;;5066717;28;20052;-77
2021/10/15 06:45:31;;;;;;;16.38;7.65;;;13.70;99.90;;;;;;5055557;28;20429;-78
2021/10/15 06:47:57;;;;;;;10.23;6.38;;;13.80;99.90;;;;;;5066182;28;20108;-78
2021/10/15 06:50:23;;;;;;;14.40;8.60;;;13.80;99.90;;;;;;5072069;28;20025;-78
2021/10/15 06:52:49;;;;;;;13.77;9.18;;;13.70;99.90;;;;;;5064135;28;20060;-78
2021/10/15 06:55:17;;;;;;;16.17;8.02;;;13.70;99.90;;;;;;5058307;28;20167;-78
2021/10/15 06:57:43;;;;;;;13.20;8.50;;;13.70;99.90;;;;;;5060278;28;20039;-78
2021/10/15 07:00:10;;;;;;;13.93;8.25;;;13.80;99.90;;;;;;5057763;28;20412;-78
2021/10/15 07:02:35;;;;;;;15.13;11.07;;;13.80;99.90;;;;;;5057183;28;20033;-78
2021/10/15 07:05:01;;;;;;;14.57;7.85;;;13.80;99.90;;;;;;5060077;28;20094;-78
2021/10/15 07:07:27;;;;;;;14.35;8.73;;;13.80;99.90;;;;;;5055392;28;20036;-78
2021/10/15 07:09:52;;;;;;;15.95;8.77;;;13.80;99.90;;;;;;5062144;28;20043;-78
2021/10/15 07:12:18;;;;;;;18.13;9.38;;;13.80;99.90;;;;;;5057704;28;20373;-78
2021/10/15 07:14:43;;;;;;;17.05;9.60;;;13.80;99.90;;;;;;5059199;28;20033;-78
2021/10/15 07:17:09;;;;;;;16.50;9.30;;;13.90;99.90;;;;;;5056182;28;20102;-78
2021/10/15 07:19:34;;;;;;;17.90;8.68;;;13.80;99.90;;;;;;5060589;28;20032;-78
2021/10/15 07:22:00;;;;;;;11.50;7.82;;;13.80;99.90;;;;;;5061500;28;20013;-78
2021/10/15 07:24:26;;;;;;;19.40;9.23;;;13.90;99.90;;;;;;5062633;28;20420;-78
2021/10/15 07:26:51;;;;;;;15.35;9.13;;;13.90;99.90;;;;;;5062662;28;20035;-78
2021/10/15 07:29:18;;;;;;;13.90;8.70;;;14.00;99.90;;;;;;5060917;28;20040;-78
2021/10/15 07:31:44;;;;;;;13.23;8.85;;;14.00;99.90;;;;;;5065814;28;20063;-78
2021/10/15 07:34:10;;;;;;;18.90;9.93;;;14.00;99.90;;;;;;5061817;28;20060;-78
2021/10/15 07:36:37;;;;;;;20.42;9.30;;;14.00;99.90;;;;;;5065357;28;20029;-78
2021/10/15 07:39:02;;;;;;;16.23;9.35;;;14.00;99.90;;;;;;5058292;28;20104;-77
2021/10/15 07:41:28;;;;;;;14.10;9.57;;;14.00;99.90;;;;;;5054202;28;20107;-77
2021/10/15 07:43:55;;;;;;;19.38;10.05;;;14.00;99.90;;;;;;5063415;28;20447;-77
2021/10/15 07:46:20;;;;;;;15.35;9.52;;;14.00;99.90;;;;;;5061239;28;20028;-77
2021/10/15 07:48:46;;;;;;;18.08;10.23;;;14.10;99.90;;;;;;5062259;28;20025;-76
2021/10/15 07:51:13;;;;;;;16.67;9.48;;;14.00;99.90;;;;;;5061444;28;20562;-78
2021/10/15 07:53:39;;;;;;;16.08;10.15;;;14.10;99.90;;;;;;5064580;28;20067;-78
2021/10/15 07:56:04;;;;;;;22.50;10.00;;;14.20;99.90;;;;;;5061588;28;20485;-78
2021/10/15 07:58:30;;;;;;;15.45;9.65;;;14.20;99.90;;;;;;5063579;28;20036;-77
2021/10/15 08:00:55;;;;;;;20.27;10.52;;;14.20;99.90;;;;;;5064738;28;20091;-77
2021/10/15 08:03:21;;;;;;;19.75;10.13;;;14.30;99.90;;;;;;5062897;28;20036;-78
2021/10/15 08:05:47;;;;;;;15.90;8.10;;;14.20;99.90;;;;;;5065831;28;20021;-78
2021/10/15 08:08:12;;;;;;;20.88;10.00;;;14.20;99.90;;;;;;5064441;28;20392;-78
2021/10/15 08:10:38;;;;;;;16.92;9.60;;;14.20;99.90;;;;;;5068002;28;20446;-78
2021/10/15 08:13:04;;;;;;;16.98;9.55;;;14.30;99.90;;;;;;5067904;28;20452;-78
2021/10/15 08:15:29;;;;;;;19.33;10.20;;;14.30;99.90;;;;;;5065085;28;20037;-78
2021/10/15 08:17:56;;;;;;;19.98;10.57;;;14.30;99.90;;;;;;5076911;28;20392;-78
2021/10/15 08:20:21;;;;;;;20.42;11.20;;;14.30;99.90;;;;;;5069297;28;20060;-78
2021/10/15 08:22:49;;;;;;;19.42;11.25;;;14.30;99.90;;;;;;5073972;28;20052;-78
2021/10/15 08:25:15;;;;;;;16.35;10.95;;;14.30;99.90;;;;;;5064045;28;20025;-78
2021/10/15 08:27:40;;;;;;;19.30;12.00;;;14.30;99.90;;;;;;5070472;28;20024;-82
2021/10/15 08:30:06;;;;;;;24.80;12.10;;;14.30;99.90;;;;;;5061497;28;20044;-82
2021/10/15 08:32:32;;;;;;;25.92;13.15;;;14.40;99.90;;;;;;5066548;28;20681;-86
2021/10/15 08:34:58;;;;;;;17.58;12.52;;;14.40;99.90;;;;;;5064282;28;20174;-85
2021/10/15 08:37:24;;;;;;;26.35;12.70;;;14.40;99.90;;;;;;5065364;28;20043;-84
2021/10/15 08:39:50;;;;;;;28.40;13.90;;;14.30;99.90;;;;;;5071116;28;20337;-86
2021/10/15 08:42:15;;;;;;;31.35;15.38;;;14.20;99.90;;;;;;5061975;28;20029;-83
2021/10/15 08:44:45;;;;;;;23.50;14.25;;;14.30;99.90;;;;;;5059109;28;20032;-86
2021/10/15 08:47:14;;;;;;;25.33;15.07;;;14.30;99.90;;;;;;5063027;28;20029;-85
2021/10/15 08:49:40;;;;;;;27.58;15.85;;;14.30;99.90;;;;;;5063649;28;20470;-86
2021/10/15 08:52:06;;;;;;;33.65;17.52;;;14.30;99.90;;;;;;5068096;28;20032;-89
2021/10/15 08:54:34;;;;;;;37.85;22.80;;;14.30;99.90;;;;;;5064787;28;20037;-83
2021/10/15 08:57:00;;;;;;;36.22;21.63;;;14.30;99.90;;;;;;5062415;28;20096;-82
2021/10/15 08:59:48;;;;;;;30.70;18.83;;;14.30;99.90;;;;;;5060603;28;20511;-84
2021/10/15 09:02:21;;;;;;;29.80;18.50;;;14.30;99.90;;;;;;5062637;28;20089;-81
2021/10/15 09:04:53;;;;;;;26.65;17.30;;;14.20;99.90;;;;;;5065606;28;20047;-79
2021/10/15 09:07:20;;;;;;;30.52;17.58;;;14.20;99.90;;;;;;5061867;28;20025;-81
2021/10/15 09:09:47;;;;;;;28.33;18.67;;;14.30;99.90;;;;;;5062421;28;20028;-82
2021/10/15 09:12:16;;;;;;;29.77;18.20;;;14.30;99.90;;;;;;5062568;28;20031;-86
2021/10/15 09:14:43;;;;;;;24.85;16.10;;;14.40;99.90;;;;;;5059899;28;20048;-87
2021/10/15 09:17:17;;;;;;;19.45;12.60;;;14.40;99.90;;;;;;5069282;28;20028;-84
2021/10/15 09:19:52;;;;;;;8.48;7.05;;;14.30;99.90;;;;;;5068908;28;20025;-88
2021/10/15 09:22:25;;;;;;;4.40;3.88;;;14.20;99.90;;;;;;5078608;28;20508;-87
2021/10/15 09:25:11;;;;;;;6.75;2.60;;;14.10;99.90;;;;;;5060880;28;20042;-84
2021/10/15 09:27:38;;;;;;;5.85;2.60;;;14.10;99.90;;;;;;5065510;28;20017;-82
2021/10/15 09:30:07;;;;;;;8.00;3.30;;;14.00;99.90;;;;;;5060429;28;20025;-82
2021/10/15 09:32:39;;;;;;;5.38;2.15;;;14.10;99.90;;;;;;5062193;28;20180;-81
2021/10/15 09:35:07;;;;;;;5.18;2.20;;;14.20;99.90;;;;;;5060116;28;20073;-79
2021/10/15 09:37:36;;;;;;;6.00;1.45;;;14.10;99.90;;;;;;5058230;28;20384;-79
2021/10/15 09:40:24;;;;;;;4.57;1.35;;;14.10;99.90;;;;;;5060838;28;20024;-82
2021/10/15 09:42:57;;;;;;;2.20;1.20;;;14.10;99.90;;;;;;5064007;28;20369;-84
2021/10/15 09:45:32;;;;;;;6.40;1.33;;;14.10;99.90;;;;;;5061332;28;20449;-86
2021/10/15 09:48:00;;;;;;;4.05;1.20;;;14.10;99.90;;;;;;5071001;28;20056;-88
2021/10/15 09:50:28;;;;;;;4.55;1.23;;;14.10;99.90;;;;;;5065465;28;20056;-84
2021/10/15 09:53:03;;;;;;;5.43;1.10;;;14.20;99.90;;;;;;5056402;28;20029;-84
2021/10/15 09:55:36;;;;;;;3.67;1.20;;;14.30;99.90;;;;;;5062532;28;20569;-86
2021/10/15 09:58:16;;;;;;;5.07;1.58;;;14.30;99.90;;;;;;5061397;28;20029;-83
2021/10/15 10:00:43;;;;;;;6.18;1.27;;;14.40;99.90;;;;;;5068750;28;20025;-88
2021/10/15 10:03:09;;;;;;;5.07;1.17;;;14.40;99.90;;;;;;5041432;28;20456;-85
2021/10/15 10:05:35;;;;;;;7.95;1.45;;;14.50;99.90;;;;;;5061909;28;20094;-89
2021/10/15 10:08:01;;;;;;;3.30;0.98;;;14.50;99.90;;;;;;5064172;28;20021;-89
2021/10/15 10:10:31;;;;;;;11.45;1.42;;;14.50;99.90;;;;;;5068531;28;20027;-89
2021/10/15 10:12:58;;;;;;;6.45;1.50;;;14.60;99.90;;;;;;5070576;28;20480;-86
2021/10/15 10:15:28;;;;;;;7.13;1.10;;;14.60;99.90;;;;;;5057633;28;20028;-89
2021/10/15 10:18:18;;;;;;;3.45;1.25;;;14.60;99.90;;;;;;5066558;28;20462;-88
2021/10/15 10:21:09;;;;;;;7.05;1.40;;;14.60;99.90;;;;;;5069226;28;20118;-87
2021/10/15 10:24:01;;;;;;;6.60;1.30;;;14.70;99.90;;;;;;5067347;28;20495;-85
2021/10/15 10:26:27;;;;;;;2.28;1.33;;;14.70;99.90;;;;;;5059392;28;20032;-86
2021/10/15 10:29:07;;;;;;;7.53;1.90;;;14.70;99.90;;;;;;5066270;28;20025;-85
2021/10/15 10:31:33;;;;;;;5.95;1.08;;;14.80;99.90;;;;;;5060535;28;20044;-85
2021/10/15 10:34:07;;;;;;;8.70;1.48;;;14.80;99.90;;;;;;5066778;28;20117;-86
2021/10/15 10:36:37;;;;;;;5.97;1.70;;;14.80;99.90;;;;;;5071646;28;20132;-87
2021/10/15 10:39:18;;;;;;;5.95;1.20;;;14.90;99.90;;;;;;5076066;28;20387;-85
2021/10/15 10:42:04;;;;;;;5.45;1.40;;;14.90;99.90;;;;;;5059775;28;20123;-83
2021/10/15 10:44:30;;;;;;;3.58;1.10;;;15.00;99.90;;;;;;5062975;28;20148;-83
2021/10/15 10:47:14;;;;;;;9.57;1.70;;;15.00;99.90;;;;;;5063921;28;20496;-77
2021/10/15 10:49:41;;;;;;;7.80;1.40;;;15.00;99.90;;;;;;5066300;28;20021;-82
2021/10/15 10:52:19;;;;;;;7.60;1.30;;;15.00;99.90;;;;;;5059055;28;20403;-82
2021/10/15 10:54:48;;;;;;;6.38;1.50;;;15.10;99.90;;;;;;5060674;28;20028;-82
2021/10/15 10:57:25;;;;;;;10.98;1.38;;;15.10;99.90;;;;;;5061214;28;20032;-84
2021/10/15 10:59:52;;;;;;;6.70;1.25;;;15.10;99.90;;;;;;5068201;28;20450;-85
2021/10/15 11:02:21;;;;;;;6.20;2.03;;;15.20;99.90;;;;;;5062195;28;20052;-83
2021/10/15 11:04:53;;;;;;;9.55;1.70;;;15.20;99.90;;;;;;5062323;28;20163;-85
2021/10/15 11:07:20;;;;;;;6.95;1.38;;;15.30;99.90;;;;;;5068452;28;20433;-83
2021/10/15 11:09:46;;;;;;;8.45;1.70;;;15.20;99.90;;;;;;5067453;28;20029;-85
2021/10/15 11:12:21;;;;;;;7.75;1.65;;;15.30;99.90;;;;;;5074262;28;20033;-86
2021/10/15 11:14:57;;;;;;;7.57;1.38;;;15.30;99.90;;;;;;5061224;28;20029;-87
2021/10/15 11:17:28;;;;;;;8.32;1.42;;;15.30;99.90;;;;;;5066453;28;20031;-88
2021/10/15 11:20:42;;;;;;;4.70;1.30;;;15.40;99.90;;;;;;5074602;28;20024;-86
2021/10/15 11:23:11;;;;;;;9.30;1.67;;;15.50;99.90;;;;;;5070750;28;20484;-88
2021/10/15 11:25:38;;;;;;;8.38;1.30;;;15.60;99.90;;;;;;5063735;28;20040;-87
2021/10/15 11:28:15;;;;;;;6.90;1.20;;;15.50;99.90;;;;;;5069697;28;20025;-88
2021/10/15 11:30:44;;;;;;;10.68;1.75;;;15.60;99.90;;;;;;5067803;28;20042;-88
2021/10/15 11:33:15;;;;;;;10.40;2.17;;;15.60;99.90;;;;;;5069170;28;20075;-87
2021/10/15 11:35:46;;;;;;;12.20;2.13;;;15.60;99.90;;;;;;5064762;28;20033;-87
2021/10/15 11:38:19;;;;;;;6.55;1.20;;;15.60;99.90;;;;;;5062867;28;20080;-84
2021/10/15 11:40:53;;;;;;;4.38;1.50;;;15.70;99.90;;;;;;5073257;28;20107;-88
2021/10/15 11:43:26;;;;;;;10.35;1.75;;;15.60;99.90;;;;;;5062728;28;20013;-88
2021/10/15 11:45:56;;;;;;;10.18;1.50;;;15.60;99.90;;;;;;5066838;28;20036;-87
2021/10/15 11:48:37;;;;;;;8.93;1.92;;;15.60;99.90;;;;;;5067459;28;20045;-88
2021/10/15 11:51:04;;;;;;;7.10;1.33;;;15.60;99.90;;;;;;5063059;28;20061;-88
2021/10/15 11:53:42;;;;;;;11.35;2.30;;;15.60;99.90;;;;;;5067988;28;20037;-89
2021/10/15 11:56:25;;;;;;;9.75;2.00;;;15.60;99.90;;;;;;5065851;28;20083;-88
2021/10/15 11:58:52;;;;;;;;;;;15.70;99.90;;;;;;5065545;28;20028;-86
2021/10/15 12:01:26;;;;;;;8.30;1.38;;;15.70;99.90;;;;;;5073945;28;19915;-88
2021/10/15 12:04:24;;;;;;;4.93;1.48;;;15.70;99.90;;;;;;5066729;28;20013;-84
2021/10/15 12:06:51;;;;;;;8.23;1.35;;;15.80;99.90;;;;;;5068500;28;20048;-87
2021/10/15 12:09:23;;;;;;;7.82;2.20;;;16.00;99.90;;;;;;5069865;28;20024;-88
2021/10/15 12:12:04;;;;;;;4.85;1.75;;;16.00;99.90;;;;;;5076539;28;20081;-89
2021/10/15 12:14:34;;;;;;;3.72;1.08;;;15.90;99.90;;;;;;5072661;28;20033;-89
2021/10/15 12:17:11;;;;;;;8.10;1.48;;;16.00;99.90;;;;;;5072490;28;20024;-88
2021/10/15 12:19:48;;;;;;;8.77;2.10;;;15.90;99.90;;;;;;5073054;28;20043;-88
2021/10/15 12:22:19;;;;;;;6.88;1.73;;;15.90;99.90;;;;;;5075302;28;20472;-88
2021/10/15 12:24:48;;;;;;;7.05;1.90;;;15.90;99.90;;;;;;5070056;28;20124;-88
2021/10/15 12:27:23;;;;;;;7.15;3.00;;;16.10;99.90;;;;;;5071103;28;20036;-87
2021/10/15 12:30:03;;;;;;;9.60;2.17;;;16.10;99.90;;;;;;5066211;28;20029;-86
2021/10/15 12:32:32;;;;;;;8.00;1.67;;;16.30;99.90;;;;;;5063215;28;20077;-88
2021/10/15 12:35:16;;;;;;;10.40;1.98;;;16.30;99.90;;;;;;5072831;28;20028;-88
2021/10/15 12:37:59;;;;;;;8.27;2.15;;;16.30;99.90;;;;;;5067239;28;20063;-87
2021/10/15 12:40:37;;;;;;;7.00;1.70;;;16.30;99.90;;;;;;5068274;28;20434;-85
2021/10/15 12:43:15;;;;;;;8.85;1.83;;;16.10;99.90;;;;;;5078030;28;20024;-88
2021/10/15 12:45:42;;;;;;;9.90;1.88;;;16.10;99.90;;;;;;5062422;28;20016;-88
2021/10/15 12:48:22;;;;;;;10.10;1.70;;;16.00;99.90;;;;;;5066033;28;20048;-87
2021/10/15 12:51:03;;;;;;;9.63;1.52;;;16.00;99.90;;;;;;5063941;28;20029;-87
2021/10/15 12:53:36;;;;;;;10.40;4.50;;;15.90;99.90;;;;;;5073460;28;20114;-85
2021/10/15 12:56:03;;;;;;;7.20;1.45;;;15.90;99.90;;;;;;5067012;28;20029;-82